createdAt,value
2018-10-12T08:58:24.205Z,3.60
2018-10-12T08:59:24.868Z,11.90
2018-10-12T09:00:26.439Z,6.80
2018-10-12T09:01:27.155Z,4.60
2018-10-12T09:02:27.988Z,6.50
2018-10-12T09:03:28.746Z,4.80
2018-10-12T09:04:29.460Z,4.40
2018-10-12T09:05:30.201Z,4.10
2018-10-12T09:06:30.881Z,3.80
2018-10-12T09:07:33.323Z,3.40
2018-10-12T09:08:34.071Z,3.40
2018-10-12T09:09:34.792Z,4.90
2018-10-12T09:10:35.623Z,3.50
2018-10-12T09:11:37.334Z,3.90
2018-10-12T09:12:38.174Z,4.10
2018-10-12T09:13:38.846Z,3.80
2018-10-12T09:14:39.522Z,3.50
2018-10-12T09:15:40.220Z,3.60
2018-10-12T09:16:41.117Z,4.40
2018-10-12T09:17:42.542Z,3.80
2018-10-12T09:18:43.212Z,4.10
2018-10-12T09:19:43.925Z,5.60
2018-10-12T09:20:44.686Z,3.50
2018-10-12T09:21:45.379Z,3.00
2018-10-12T09:22:46.090Z,5.90
2018-10-12T09:23:46.828Z,5.20
2018-10-12T09:24:47.553Z,3.20
2018-10-12T09:25:48.244Z,5.30
2018-10-12T09:26:49.212Z,3.30
2018-10-12T09:27:50.545Z,3.60
2018-10-12T09:28:51.234Z,3.10
2018-10-12T09:29:52.643Z,3.60
2018-10-12T09:30:53.371Z,4.50
2018-10-12T09:31:54.095Z,3.00
2018-10-12T09:32:54.881Z,3.40
2018-10-12T09:33:55.611Z,2.80
2018-10-12T09:34:56.346Z,3.50
2018-10-12T09:35:57.773Z,3.50
2018-10-12T09:36:58.553Z,3.30
2018-10-12T09:37:59.311Z,3.60
2018-10-12T09:39:00.051Z,3.20
2018-10-12T09:40:00.775Z,3.40
2018-10-12T09:41:01.630Z,4.90
2018-10-12T09:42:02.440Z,3.40
2018-10-12T09:43:03.220Z,4.70
2018-10-12T09:44:04.118Z,4.10
2018-10-12T09:45:04.832Z,3.50
2018-10-12T09:46:05.590Z,3.30
2018-10-12T09:47:06.386Z,4.20
2018-10-12T09:48:07.082Z,3.60
2018-10-12T09:49:07.845Z,4.30
2018-10-12T09:50:08.532Z,5.80
2018-10-12T09:51:09.397Z,3.60
2018-10-12T09:52:10.113Z,4.30
2018-10-12T09:53:10.969Z,3.50
2018-10-12T09:54:11.718Z,7.50
2018-10-12T09:55:17.019Z,5.30
2018-10-12T09:56:19.467Z,3.80
2018-10-12T09:57:20.826Z,4.20
2018-10-12T09:58:21.513Z,4.70
2018-10-12T09:59:22.185Z,3.80
2018-10-12T10:00:22.937Z,3.60
2018-10-12T10:01:23.660Z,3.50
2018-10-12T10:02:24.369Z,5.80
2018-10-12T10:03:25.189Z,5.00
2018-10-12T10:04:25.889Z,3.90
2018-10-12T10:05:26.652Z,3.60
2018-10-12T10:06:27.408Z,3.90
2018-10-12T10:07:28.755Z,4.10
2018-10-12T10:08:29.621Z,3.80
2018-10-12T10:09:30.299Z,3.60
2018-10-12T10:10:31.054Z,3.40
2018-10-12T10:11:32.228Z,4.70
2018-10-12T10:12:33.022Z,3.40
2018-10-12T10:13:34.565Z,3.80
2018-10-12T10:14:35.387Z,3.80
2018-10-12T10:15:36.211Z,5.50
2018-10-12T10:16:37.715Z,3.70
2018-10-12T10:17:38.500Z,5.10
2018-10-12T10:18:40.216Z,4.00
2018-10-12T10:19:41.049Z,5.40
2018-10-12T10:20:41.881Z,3.50
2018-10-12T10:21:43.283Z,4.00
2018-10-12T10:22:43.977Z,3.50
2018-10-12T10:23:44.729Z,3.40
2018-10-12T10:24:45.470Z,3.40
2018-10-12T10:25:46.132Z,3.30
2018-10-12T10:26:46.828Z,3.50
2018-10-12T10:27:47.573Z,4.80
2018-10-12T10:28:48.355Z,3.40
2018-10-12T10:29:50.102Z,4.80
2018-10-12T10:30:50.660Z,5.20
2018-10-12T10:31:51.436Z,3.50
2018-10-12T10:32:52.082Z,3.30
2018-10-12T10:33:52.840Z,5.10
2018-10-12T10:34:53.695Z,3.40
2018-10-12T10:35:54.669Z,3.40
2018-10-12T10:36:55.352Z,4.20
2018-10-12T10:37:56.012Z,3.20
2018-10-12T10:38:56.675Z,3.90
2018-10-12T10:39:57.417Z,3.40
2018-10-12T10:40:58.100Z,3.20
2018-10-12T10:42:59.045Z,4.80
2018-10-12T10:44:00.479Z,6.50
2018-10-12T10:45:01.945Z,3.80
2018-10-12T10:47:02.981Z,2.90
2018-10-12T10:48:03.713Z,5.30
2018-10-12T10:49:09.699Z,3.20
2018-10-12T10:50:15.333Z,3.20
2018-10-12T10:51:41.049Z,4.50
2018-10-12T10:52:41.770Z,2.60
2018-10-12T10:53:42.454Z,3.30
2018-10-12T10:54:44.314Z,2.50
2018-10-12T10:55:45.373Z,3.10
2018-10-12T10:56:46.098Z,3.40
2018-10-12T10:57:46.822Z,2.60
2018-10-12T10:58:48.617Z,5.00
2018-10-12T10:59:49.348Z,5.30
2018-10-12T11:00:50.070Z,3.40
2018-10-12T11:01:51.000Z,3.40
2018-10-12T11:02:51.728Z,4.10
2018-10-12T11:03:52.486Z,5.00
2018-10-12T11:04:53.169Z,2.40
2018-10-12T11:05:53.896Z,3.50
2018-10-12T11:06:54.750Z,2.30
2018-10-12T11:07:55.684Z,3.20
2018-10-12T11:08:57.482Z,2.50
2018-10-12T11:09:58.788Z,3.00
2018-10-12T11:10:59.541Z,2.60
2018-10-12T11:12:00.391Z,3.10
2018-10-12T11:13:01.365Z,2.70
2018-10-12T11:14:02.145Z,3.10
2018-10-12T11:15:02.879Z,4.60
2018-10-12T11:16:03.600Z,4.40
2018-10-12T11:17:04.385Z,5.60
2018-10-12T11:18:05.389Z,2.80
2018-10-12T11:19:06.176Z,2.70
2018-10-12T11:20:06.888Z,5.20
2018-10-12T11:21:07.565Z,2.60
2018-10-12T11:22:08.233Z,3.30
2018-10-12T11:23:08.932Z,2.20
2018-10-12T11:24:09.632Z,3.30
2018-10-12T11:25:10.314Z,2.80
2018-10-12T11:27:11.357Z,3.30
2018-10-12T11:28:12.131Z,2.40
2018-10-12T11:29:12.809Z,2.60
2018-10-12T11:30:13.493Z,3.40
2018-10-12T11:31:14.153Z,2.40
2018-10-12T11:32:17.511Z,6.00
2018-10-12T11:33:18.265Z,2.20
2018-10-12T11:34:19.295Z,3.70
2018-10-12T11:35:19.982Z,3.90
2018-10-12T11:36:20.682Z,2.40
2018-10-12T11:37:21.402Z,3.50
2018-10-12T11:38:24.560Z,3.60
2018-10-12T11:39:25.307Z,2.70
2018-10-12T11:40:25.974Z,2.40
2018-10-12T11:41:38.955Z,3.10
2018-10-12T11:42:39.698Z,2.40
2018-10-12T11:43:41.450Z,3.10
2018-10-12T11:44:42.224Z,4.60
2018-10-12T11:45:43.957Z,4.40
2018-10-12T11:46:44.681Z,2.50
2018-10-12T11:48:45.850Z,2.70
2018-10-12T11:49:46.563Z,2.50
2018-10-12T11:50:47.359Z,3.60
2018-10-12T11:51:48.086Z,4.00
2018-10-12T11:52:48.810Z,2.30
2018-10-12T11:53:49.490Z,2.60
2018-10-12T11:54:50.205Z,2.40
2018-10-12T11:55:50.887Z,4.60
2018-10-12T11:56:51.561Z,8.10
2018-10-12T11:57:52.228Z,3.70
2018-10-12T11:58:52.873Z,3.00
2018-10-12T11:59:53.525Z,2.50
2018-10-12T12:00:54.213Z,2.90
2018-10-12T12:01:55.071Z,3.60
2018-10-12T12:02:55.779Z,2.80
2018-10-12T12:03:56.567Z,2.30
2018-10-12T12:04:57.329Z,4.30
2018-10-12T12:05:58.004Z,2.70
2018-10-12T12:06:58.706Z,4.30
2018-10-12T12:07:59.379Z,3.90
2018-10-12T12:09:00.142Z,2.80
2018-10-12T12:10:00.990Z,2.60
2018-10-12T12:11:01.827Z,4.30
2018-10-12T12:12:02.535Z,2.30
2018-10-12T12:13:03.309Z,3.00
2018-10-12T12:14:04.102Z,2.90
2018-10-12T12:15:04.900Z,2.60
2018-10-12T12:16:05.655Z,2.60
2018-10-12T12:17:06.467Z,3.40
2018-10-12T12:18:07.223Z,2.70
2018-10-12T12:19:07.931Z,3.20
2018-10-12T12:20:08.610Z,3.20
2018-10-12T12:21:09.301Z,2.70
2018-10-12T12:22:09.965Z,4.10
2018-10-12T12:23:10.706Z,3.70
2018-10-12T12:25:11.655Z,2.90
2018-10-12T12:26:12.325Z,3.60
2018-10-12T12:27:13.044Z,2.80
2018-10-12T12:28:13.784Z,2.60
2018-10-12T12:29:14.601Z,4.60
2018-10-12T12:30:15.353Z,4.10
2018-10-12T12:31:16.040Z,5.60
2018-10-12T12:32:16.712Z,5.00
2018-10-12T12:33:23.401Z,4.30
2018-10-12T12:34:24.097Z,2.50
2018-10-12T12:35:25.409Z,2.50
2018-10-12T12:37:25.991Z,3.90
2018-10-12T12:38:26.682Z,3.90
2018-10-12T12:39:27.359Z,3.50
2018-10-12T12:40:28.611Z,2.50
2018-10-12T12:41:30.169Z,3.30
2018-10-12T12:42:30.906Z,3.10
2018-10-12T12:43:31.618Z,2.80
2018-10-12T12:44:35.237Z,2.80
2018-10-12T12:46:40.268Z,3.40
2018-10-12T12:47:41.325Z,2.60
2018-10-12T12:48:42.467Z,2.50
2018-10-12T12:49:42.721Z,2.50
2018-10-12T12:50:43.409Z,3.60
2018-10-12T12:51:44.093Z,2.70
2018-10-12T12:52:44.777Z,3.80
2018-10-12T12:54:45.887Z,2.50
2018-10-12T12:55:46.564Z,4.00
2018-10-12T12:56:47.261Z,3.60
2018-10-12T12:57:47.923Z,2.90
2018-10-12T12:58:48.636Z,3.20
2018-10-12T12:59:49.343Z,4.30
2018-10-12T13:00:50.095Z,3.20
2018-10-12T13:01:50.747Z,2.80
2018-10-12T13:02:51.485Z,4.20
2018-10-12T13:03:52.190Z,2.90
2018-10-12T13:04:52.893Z,4.60
2018-10-12T13:05:53.599Z,2.60
2018-10-12T13:06:54.337Z,2.80
2018-10-12T13:07:54.983Z,3.90
2018-10-12T13:08:55.657Z,4.40
2018-10-12T13:09:56.346Z,3.90
2018-10-12T13:10:57.066Z,3.70
2018-10-12T13:12:58.010Z,4.30
2018-10-12T13:13:58.711Z,3.20
2018-10-12T13:14:59.479Z,3.10
2018-10-12T13:16:00.705Z,2.50
2018-10-12T13:17:01.486Z,4.10
2018-10-12T13:18:02.244Z,4.10
2018-10-12T13:19:02.933Z,2.80
2018-10-12T13:20:03.635Z,3.30
2018-10-12T13:21:04.466Z,2.60
2018-10-12T13:22:05.228Z,3.70
2018-10-12T13:23:05.963Z,3.50
2018-10-12T13:24:06.677Z,3.90
2018-10-12T13:25:07.423Z,3.60
2018-10-12T13:26:10.400Z,3.50
2018-10-12T13:27:11.048Z,2.80
2018-10-12T13:28:11.996Z,2.70
2018-10-12T13:29:12.671Z,4.30
2018-10-12T13:30:13.393Z,2.60
2018-10-12T13:31:15.310Z,3.20
2018-10-12T13:32:16.090Z,3.10
2018-10-12T13:33:16.855Z,4.50
2018-10-12T13:34:17.695Z,2.30
2018-10-12T13:35:18.419Z,2.80
2018-10-12T13:36:19.210Z,2.40
2018-10-12T13:37:19.970Z,2.70
2018-10-12T13:38:20.661Z,2.30
2018-10-12T13:39:21.407Z,3.30
2018-10-12T13:40:22.129Z,2.50
2018-10-12T13:41:22.811Z,4.60
2018-10-12T13:42:23.607Z,2.40
2018-10-12T13:43:24.290Z,2.60
2018-10-12T13:45:25.253Z,2.80
2018-10-12T13:46:26.013Z,4.50
2018-10-12T13:47:26.700Z,2.40
2018-10-12T13:48:27.429Z,3.70
2018-10-12T13:49:28.127Z,3.00
2018-10-12T13:50:28.764Z,2.30
2018-10-12T13:51:29.416Z,2.90
2018-10-12T13:52:30.186Z,3.70
2018-10-12T13:53:31.083Z,2.40
2018-10-12T13:54:32.079Z,3.00
2018-10-12T13:55:32.875Z,4.20
2018-10-12T13:56:34.350Z,4.40
2018-10-12T13:57:35.077Z,2.60
2018-10-12T13:58:35.866Z,2.20
2018-10-12T13:59:37.700Z,4.40
2018-10-12T14:00:38.488Z,2.40
2018-10-12T14:01:39.257Z,2.50
2018-10-12T14:02:39.986Z,2.20
2018-10-12T14:03:41.719Z,2.20
2018-10-12T14:04:42.381Z,4.00
2018-10-12T14:05:43.237Z,3.40
2018-10-12T14:06:44.337Z,3.60
2018-10-12T14:07:45.124Z,2.60
2018-10-12T14:08:45.770Z,2.20
2018-10-12T14:09:46.528Z,2.40
2018-10-12T14:10:47.300Z,2.40
2018-10-12T14:11:48.004Z,3.00
2018-10-12T14:12:48.681Z,2.50
2018-10-12T14:13:50.940Z,3.50
2018-10-12T14:14:54.896Z,4.30
2018-10-12T14:15:55.612Z,4.30
2018-10-12T14:16:56.331Z,2.40
2018-10-12T14:17:57.143Z,3.50
2018-10-12T14:18:57.977Z,3.30
2018-10-12T14:19:58.612Z,5.10
2018-10-12T14:20:59.309Z,2.30
2018-10-12T14:22:01.817Z,4.50
2018-10-12T14:23:03.005Z,5.20
2018-10-12T14:24:03.749Z,2.30
2018-10-12T14:25:04.568Z,3.40
2018-10-12T14:26:05.313Z,2.90
2018-10-12T14:28:06.434Z,3.40
2018-10-12T14:29:07.129Z,2.70
2018-10-12T14:30:08.178Z,5.40
2018-10-12T14:31:09.646Z,3.80
2018-10-12T14:32:10.398Z,2.80
2018-10-12T14:33:11.182Z,5.10
2018-10-12T14:34:11.826Z,2.40
2018-10-12T14:35:12.717Z,2.70
2018-10-12T14:36:13.391Z,3.00
2018-10-12T14:37:14.123Z,3.30
2018-10-12T14:38:14.856Z,3.60
2018-10-12T14:39:16.057Z,2.50
2018-10-12T14:40:16.781Z,4.60
2018-10-12T14:41:17.470Z,2.20
2018-10-12T14:42:18.229Z,3.00
2018-10-12T14:43:19.023Z,3.30
2018-10-12T14:44:20.040Z,2.20
2018-10-12T14:45:20.548Z,3.00
2018-10-12T14:46:21.191Z,4.00
2018-10-12T14:47:21.901Z,2.60
2018-10-12T14:48:22.682Z,3.00
2018-10-12T14:49:23.399Z,4.50
2018-10-12T14:50:24.159Z,4.10
2018-10-12T14:51:24.902Z,2.50
2018-10-12T14:52:25.652Z,3.90
2018-10-12T14:53:26.368Z,3.80
2018-10-12T14:54:27.204Z,2.80
2018-10-12T14:55:28.013Z,5.30
2018-10-12T14:57:29.451Z,2.80
2018-10-12T14:58:30.379Z,2.90
2018-10-12T14:59:31.112Z,3.90
2018-10-12T15:00:31.815Z,4.10
2018-10-12T15:01:33.288Z,5.10
2018-10-12T15:02:34.081Z,4.50
2018-10-12T15:03:34.913Z,2.40
2018-10-12T15:04:35.683Z,3.10
2018-10-12T15:05:36.478Z,6.40
2018-10-12T15:06:37.339Z,2.60
2018-10-12T15:07:38.024Z,2.30
2018-10-12T15:08:39.103Z,2.40
2018-10-12T15:09:39.966Z,2.50
2018-10-12T15:10:40.821Z,3.30
2018-10-12T15:11:41.587Z,3.10
2018-10-12T15:12:42.368Z,3.90
2018-10-12T15:13:43.195Z,3.20
2018-10-12T15:14:43.827Z,3.60
2018-10-12T15:15:44.554Z,2.30
2018-10-12T15:16:45.316Z,3.80
2018-10-12T15:17:46.096Z,3.30
2018-10-12T15:18:46.800Z,3.30
2018-10-12T15:19:47.449Z,3.40
2018-10-12T15:20:48.274Z,2.30
2018-10-12T15:21:48.916Z,4.10
2018-10-12T15:22:49.835Z,5.00
2018-10-12T15:23:50.510Z,2.20
2018-10-12T15:24:51.270Z,2.20
2018-10-12T15:25:51.980Z,5.30
2018-10-12T15:26:52.785Z,4.60
2018-10-12T15:27:53.609Z,3.60
2018-10-12T15:28:54.263Z,4.60
2018-10-12T15:29:54.900Z,6.10
2018-10-12T15:30:55.577Z,4.90
2018-10-12T15:31:56.318Z,3.60
2018-10-12T15:32:57.033Z,3.30
2018-10-12T15:33:57.703Z,8.90
2018-10-12T15:34:58.396Z,6.80
2018-10-12T15:35:59.073Z,8.60
2018-10-12T15:36:59.794Z,7.20
2018-10-12T15:38:00.706Z,8.50
2018-10-12T15:39:01.433Z,7.80
2018-10-12T15:40:02.252Z,9.90
2018-10-12T15:41:02.911Z,5.10
2018-10-12T15:42:03.720Z,5.20
2018-10-12T15:43:04.487Z,6.50
2018-10-12T15:44:05.301Z,4.40
2018-10-12T15:45:06.076Z,4.30
2018-10-12T15:46:06.739Z,4.00
2018-10-12T15:47:08.029Z,6.70
2018-10-12T15:48:08.762Z,5.20
2018-10-12T15:49:09.415Z,4.00
2018-10-12T15:50:10.126Z,3.00
2018-10-12T15:51:10.890Z,6.10
2018-10-12T15:52:11.581Z,7.00
2018-10-12T15:53:12.272Z,14.90
2018-10-12T15:54:12.989Z,8.90
2018-10-12T15:56:14.009Z,9.90
2018-10-12T15:57:14.725Z,13.80
2018-10-12T15:58:15.457Z,13.50
2018-10-12T15:59:16.151Z,9.60
2018-10-12T16:00:16.855Z,7.30
2018-10-12T16:01:17.536Z,9.40
2018-10-12T16:02:18.247Z,8.50
2018-10-12T16:03:18.920Z,8.50
2018-10-12T16:04:20.038Z,7.50
2018-10-12T16:05:20.722Z,6.10
2018-10-12T16:06:21.422Z,8.40
2018-10-12T16:07:22.165Z,7.00
2018-10-12T16:08:22.858Z,5.30
2018-10-12T16:09:23.541Z,6.40
2018-10-12T16:10:24.347Z,4.70
2018-10-12T16:11:25.070Z,3.70
2018-10-12T16:13:26.007Z,5.20
2018-10-12T16:14:26.706Z,4.50
2018-10-12T16:15:27.371Z,13.40
2018-10-12T16:16:28.009Z,9.30
2018-10-12T16:17:28.708Z,12.20
2018-10-12T16:18:29.482Z,7.80
2018-10-12T16:19:30.194Z,10.90
2018-10-12T16:20:31.628Z,7.40
2018-10-12T16:21:32.445Z,11.60
2018-10-12T16:22:33.832Z,13.00
2018-10-12T16:23:34.772Z,16.40
2018-10-12T16:24:35.484Z,10.70
2018-10-12T16:25:36.195Z,13.70
2018-10-12T16:26:37.006Z,8.80
2018-10-12T16:28:38.629Z,10.70
2018-10-12T16:29:39.380Z,8.50
2018-10-12T16:30:40.298Z,12.80
2018-10-12T16:31:40.965Z,8.70
2018-10-12T16:32:41.801Z,6.40
2018-10-12T16:33:42.504Z,8.30
2018-10-12T16:34:43.204Z,5.00
2018-10-12T16:35:43.935Z,6.70
2018-10-12T16:36:45.706Z,9.90
2018-10-12T16:37:46.448Z,8.70
2018-10-12T16:38:47.180Z,6.80
2018-10-12T16:39:47.870Z,6.40
2018-10-12T16:40:48.557Z,5.90
2018-10-12T16:41:49.225Z,6.70
2018-10-12T16:42:49.911Z,4.50
2018-10-12T16:43:50.579Z,6.20
2018-10-12T16:44:51.296Z,4.00
2018-10-12T16:45:52.008Z,3.70
2018-10-12T16:46:52.739Z,5.50
2018-10-12T16:48:53.767Z,4.40
2018-10-12T16:49:54.393Z,4.30
2018-10-12T16:50:55.036Z,4.50
2018-10-12T16:51:55.790Z,6.10
2018-10-12T16:52:56.469Z,6.40
2018-10-12T16:53:57.185Z,5.70
2018-10-12T16:54:58.062Z,4.90
2018-10-12T16:55:58.868Z,8.80
2018-10-12T16:56:59.536Z,7.00
2018-10-12T16:58:00.338Z,6.20
2018-10-12T16:59:01.219Z,6.90
2018-10-12T17:00:01.947Z,8.30
2018-10-12T17:01:02.691Z,10.40
2018-10-12T17:02:03.416Z,7.60
2018-10-12T17:03:04.112Z,3.60
2018-10-12T17:04:04.906Z,4.60
2018-10-12T17:05:05.735Z,6.50
2018-10-12T17:06:06.464Z,7.50
2018-10-12T17:07:07.177Z,7.00
2018-10-12T17:08:07.844Z,4.50
2018-10-12T17:09:08.521Z,6.10
2018-10-12T17:10:09.255Z,6.20
2018-10-12T17:11:09.949Z,7.60
2018-10-12T17:12:10.682Z,4.60
2018-10-12T17:13:11.372Z,4.70
2018-10-12T17:15:12.323Z,4.00
2018-10-12T17:16:13.055Z,7.20
2018-10-12T17:17:13.713Z,6.40
2018-10-12T17:18:14.421Z,5.30
2018-10-12T17:19:15.869Z,10.30
2018-10-12T17:20:16.581Z,8.20
2018-10-12T17:21:17.288Z,7.00
2018-10-12T17:22:17.937Z,7.80
2018-10-12T17:23:18.646Z,11.30
2018-10-12T17:24:19.439Z,8.40
2018-10-12T17:25:20.145Z,6.40
2018-10-12T17:26:20.870Z,8.10
2018-10-12T17:27:21.583Z,8.60
2018-10-12T17:28:22.310Z,8.00
2018-10-12T17:29:23.016Z,5.80
